Time;durP1;ratioP1;P1;durP2;ratioP2;P2;SDS_P1;SDS_P2;PMS_P1;PMS_P2;Temp;Humidity;BMP_temperature;BMP_pressure;BME280_temperature;BME280_humidity;BME280_pressure;Samples;Min_cycle;Max_cycle;Signal;HPM_P1;HPM_P2
2021/01/28 00:00:46;;;;;;;26.80;8.15;;;7.00;99.90;;;;;;5028283;28;20509;-65
2021/01/28 00:03:13;;;;;;;29.60;8.63;;;7.00;99.90;;;;;;5025440;28;20037;-64
2021/01/28 00:05:40;;;;;;;27.92;8.07;;;7.00;99.90;;;;;;5026883;28;20037;-65
2021/01/28 00:08:09;;;;;;;33.92;9.32;;;7.00;99.90;;;;;;5026003;28;20029;-64
2021/01/28 00:10:35;;;;;;;34.92;7.75;;;7.00;99.90;;;;;;5027783;28;20029;-65
2021/01/28 00:13:02;;;;;;;22.75;7.00;;;7.00;99.90;;;;;;5020463;28;20410;-65
2021/01/28 00:15:31;;;;;;;27.30;7.72;;;7.00;99.90;;;;;;5028188;28;20483;-65
2021/01/28 00:17:57;;;;;;;33.95;8.13;;;7.00;99.90;;;;;;5028806;28;20514;-65
2021/01/28 00:20:37;;;;;;;31.13;8.43;;;7.10;99.90;;;;;;5023994;28;20061;-65
2021/01/28 00:23:04;;;;;;;29.88;7.57;;;7.10;99.90;;;;;;5023604;28;20037;-65
2021/01/28 00:25:29;;;;;;;21.83;6.72;;;7.10;99.90;;;;;;5028462;28;20036;-65
2021/01/28 00:27:55;;;;;;;30.08;8.25;;;7.10;99.90;;;;;;5028550;28;20441;-64
2021/01/28 00:30:32;;;;;;;28.48;6.90;;;7.00;99.90;;;;;;5028386;28;20087;-65
2021/01/28 00:32:58;;;;;;;26.75;8.23;;;7.00;99.90;;;;;;5024121;28;20028;-66
2021/01/28 00:35:23;;;;;;;27.95;8.48;;;7.10;99.90;;;;;;5028472;28;20025;-65
2021/01/28 00:37:49;;;;;;;21.30;7.50;;;7.10;99.90;;;;;;5027159;28;20092;-65
2021/01/28 00:40:15;;;;;;;28.88;7.82;;;7.10;99.90;;;;;;5028455;28;20079;-65
2021/01/28 00:42:40;;;;;;;29.65;8.98;;;7.10;99.90;;;;;;5028680;28;20037;-65
2021/01/28 00:45:07;;;;;;;25.67;8.05;;;7.00;99.90;;;;;;5031994;28;20036;-65
2021/01/28 00:47:32;;;;;;;24.08;6.68;;;7.00;99.90;;;;;;5028143;28;20033;-65
2021/01/28 00:49:58;;;;;;;33.78;8.60;;;7.00;99.90;;;;;;5028815;28;20053;-65
2021/01/28 00:52:23;;;;;;;24.35;6.88;;;6.90;99.90;;;;;;5028411;28;20513;-66
2021/01/28 00:54:49;;;;;;;22.42;6.85;;;6.90;99.90;;;;;;5028791;28;20505;-65
2021/01/28 00:57:14;;;;;;;27.25;8.68;;;6.90;99.90;;;;;;5028183;28;20030;-65
2021/01/28 00:59:40;;;;;;;19.67;7.47;;;6.90;99.90;;;;;;5028405;28;20095;-64
2021/01/28 01:02:05;;;;;;;26.25;7.32;;;6.80;99.90;;;;;;5028635;28;20041;-64
2021/01/28 01:04:31;;;;;;;28.75;9.05;;;6.90;99.90;;;;;;5028113;28;20038;-65
2021/01/28 01:06:57;;;;;;;35.92;10.18;;;6.80;99.90;;;;;;5028801;28;20038;-64
2021/01/28 01:09:24;;;;;;;30.55;9.50;;;6.70;99.90;;;;;;5029075;28;20033;-65
2021/01/28 01:11:51;;;;;;;33.95;9.60;;;6.70;99.90;;;;;;5032880;28;20038;-65
2021/01/28 01:14:17;;;;;;;34.65;10.15;;;6.60;99.90;;;;;;5028369;28;20037;-65
2021/01/28 01:19:16;;;;;;;41.22;10.27;;;6.50;99.90;;;;;;4977203;28;20053;-68
2021/01/28 01:21:42;;;;;;;40.78;11.50;;;6.40;99.90;;;;;;4980719;28;20041;-63
2021/01/28 01:24:07;;;;;;;48.38;10.95;;;6.40;99.90;;;;;;4979225;28;20038;-64
2021/01/28 01:26:33;;;;;;;59.60;12.20;;;6.30;99.90;;;;;;4979098;28;20030;-63
2021/01/28 01:28:58;;;;;;;46.05;11.10;;;6.30;99.90;;;;;;4978256;28;20518;-62
2021/01/28 01:31:24;;;;;;;73.32;13.23;;;6.30;99.90;;;;;;4980316;28;20046;-63
2021/01/28 01:33:49;;;;;;;74.43;13.32;;;6.20;99.90;;;;;;4996666;28;20043;-63
2021/01/28 01:36:15;;;;;;;82.82;14.90;;;6.30;99.90;;;;;;4987444;28;20042;-63
2021/01/28 01:38:41;;;;;;;97.97;13.52;;;6.20;99.90;;;;;;4982819;28;20045;-63
2021/01/28 01:41:06;;;;;;;86.18;12.63;;;6.20;99.90;;;;;;4982931;28;20550;-63
2021/01/28 01:43:32;;;;;;;67.18;11.80;;;6.30;99.90;;;;;;4983919;28;20406;-63
2021/01/28 01:46:08;;;;;;;96.82;15.27;;;6.30;99.90;;;;;;4982468;28;20167;-62
2021/01/28 01:48:47;;;;;;;143.13;17.08;;;6.30;99.90;;;;;;4982681;28;20060;-63
2021/01/28 01:51:19;;;;;;;116.43;14.70;;;6.30;99.90;;;;;;4982799;28;20030;-63
2021/01/28 01:53:54;;;;;;;85.70;13.10;;;6.30;99.90;;;;;;4979902;28;20707;-63
2021/01/28 01:56:25;;;;;;;58.75;11.88;;;6.40;99.90;;;;;;4980301;28;20574;-63
2021/01/28 01:58:57;;;;;;;62.13;12.18;;;6.30;99.90;;;;;;4981097;28;20034;-64
2021/01/28 02:01:26;;;;;;;62.17;11.27;;;6.30;99.90;;;;;;4985995;28;20033;-64
2021/01/28 02:03:54;;;;;;;55.40;11.02;;;6.30;99.90;;;;;;4981187;28;20031;-64
2021/01/28 02:06:39;;;;;;;55.17;11.35;;;6.30;99.90;;;;;;4985041;28;20054;-64
2021/01/28 02:09:06;;;;;;;77.28;11.95;;;6.30;99.90;;;;;;4985049;28;20049;-63
2021/01/28 02:11:32;;;;;;;45.17;10.25;;;6.30;99.90;;;;;;4983110;28;20031;-63
2021/01/28 02:14:01;;;;;;;40.38;9.98;;;6.30;99.90;;;;;;4983921;28;20034;-63
2021/01/28 02:16:30;;;;;;;75.88;11.85;;;6.30;99.90;;;;;;4980728;28;20506;-63
2021/01/28 02:18:58;;;;;;;56.35;10.85;;;6.20;99.90;;;;;;4983784;28;20180;-66
2021/01/28 02:21:34;;;;;;;52.05;10.70;;;6.20;99.90;;;;;;4981976;28;20098;-64
2021/01/28 02:24:14;;;;;;;78.97;12.77;;;6.20;99.90;;;;;;4983305;28;20042;-64
2021/01/28 02:26:48;;;;;;;34.70;10.18;;;6.20;99.90;;;;;;4983668;28;21498;-64
2021/01/28 02:29:14;;;;;;;39.42;11.60;;;6.20;99.90;;;;;;4980978;28;20072;-64
2021/01/28 02:31:43;;;;;;;67.90;11.77;;;6.30;99.90;;;;;;4983764;28;20058;-64
2021/01/28 02:34:09;;;;;;;45.78;11.50;;;6.30;99.90;;;;;;4981459;28;20034;-64
2021/01/28 02:36:45;;;;;;;64.78;13.18;;;6.30;99.90;;;;;;4983679;28;20031;-63
2021/01/28 02:39:13;;;;;;;69.10;11.13;;;6.30;99.90;;;;;;4980907;28;20061;-63
2021/01/28 02:41:41;;;;;;;90.10;13.52;;;6.30;99.90;;;;;;4983760;28;20035;-64
2021/01/28 02:44:07;;;;;;;43.63;10.57;;;6.30;99.90;;;;;;4979279;28;20459;-63
2021/01/28 02:46:33;;;;;;;144.45;17.92;;;6.40;99.90;;;;;;4980914;28;20067;-64
2021/01/28 02:48:58;;;;;;;67.50;11.25;;;6.40;99.90;;;;;;4982407;28;20097;-64
2021/01/28 02:51:24;;;;;;;73.38;13.95;;;6.30;99.90;;;;;;4981759;28;20039;-63
2021/01/28 02:53:53;;;;;;;66.68;11.13;;;6.30;99.90;;;;;;4983486;28;20362;-63
2021/01/28 02:56:21;;;;;;;71.50;12.63;;;6.30;99.90;;;;;;4979991;28;20055;-63
2021/01/28 02:58:47;;;;;;;55.03;10.48;;;6.40;99.90;;;;;;4984223;28;20039;-63
2021/01/28 03:01:13;;;;;;;57.17;11.05;;;6.40;99.90;;;;;;4980473;28;20058;-63
2021/01/28 03:03:39;;;;;;;59.50;11.23;;;6.40;99.90;;;;;;4983437;28;20038;-64
2021/01/28 03:06:05;;;;;;;44.08;11.25;;;6.40;99.90;;;;;;4979959;28;20041;-63
2021/01/28 03:08:31;;;;;;;67.32;12.93;;;6.30;99.90;;;;;;4979725;28;20035;-63
2021/01/28 03:10:58;;;;;;;49.72;11.23;;;6.30;99.90;;;;;;4980716;28;20541;-69
2021/01/28 03:13:24;;;;;;;45.45;10.98;;;6.40;99.90;;;;;;4978766;28;20719;-63
2021/01/28 03:15:50;;;;;;;56.67;12.80;;;6.40;99.90;;;;;;4982387;28;20120;-63
2021/01/28 03:18:17;;;;;;;53.05;11.82;;;6.40;99.90;;;;;;4977305;28;20487;-63
2021/01/28 03:20:43;;;;;;;37.22;10.68;;;6.40;99.90;;;;;;4979328;28;20031;-63
2021/01/28 03:23:09;;;;;;;39.50;10.80;;;6.40;99.90;;;;;;4996312;28;20383;-63
2021/01/28 03:25:36;;;;;;;41.90;10.15;;;6.40;99.90;;;;;;4979971;28;20123;-63
2021/01/28 03:28:03;;;;;;;39.13;10.20;;;6.40;99.90;;;;;;4980326;28;20035;-63
2021/01/28 03:30:35;;;;;;;50.13;11.20;;;6.40;99.90;;;;;;4980830;28;20054;-64
2021/01/28 03:33:03;;;;;;;45.22;9.93;;;6.50;99.90;;;;;;4979690;28;20054;-64
2021/01/28 03:35:29;;;;;;;45.03;10.68;;;6.50;99.90;;;;;;4980464;28;20022;-63
2021/01/28 03:37:54;;;;;;;35.78;11.00;;;6.50;99.90;;;;;;4979822;28;20594;-63
2021/01/28 03:40:23;;;;;;;43.95;11.10;;;6.60;99.90;;;;;;4981542;28;20121;-63
2021/01/28 03:42:49;;;;;;;52.08;11.02;;;6.50;99.90;;;;;;4979342;28;20058;-63
2021/01/28 03:45:15;;;;;;;51.42;12.95;;;6.60;99.90;;;;;;4981991;28;20034;-63
2021/01/28 03:47:41;;;;;;;74.78;13.38;;;6.60;99.90;;;;;;4979038;28;20071;-63
2021/01/28 03:50:08;;;;;;;64.03;12.15;;;6.60;99.90;;;;;;4981604;28;20466;-63
2021/01/28 03:52:34;;;;;;;52.28;11.15;;;6.60;99.90;;;;;;4978060;28;20034;-63
2021/01/28 03:55:01;;;;;;;56.30;11.02;;;6.60;99.90;;;;;;4980303;28;20034;-64
2021/01/28 03:57:26;;;;;;;36.38;11.18;;;6.50;99.90;;;;;;4979905;28;20034;-64
2021/01/28 03:59:52;;;;;;;34.17;10.88;;;6.60;99.90;;;;;;4994383;28;20058;-63
2021/01/28 04:02:17;;;;;;;46.88;12.27;;;6.50;99.90;;;;;;4980800;28;20037;-63
2021/01/28 04:04:43;;;;;;;40.58;11.82;;;6.50;99.90;;;;;;4978138;28;20121;-63
2021/01/28 04:07:08;;;;;;;38.55;10.40;;;6.60;99.90;;;;;;4981172;28;20035;-63
2021/01/28 04:09:34;;;;;;;39.50;11.48;;;6.60;99.90;;;;;;4980851;28;20064;-64
2021/01/28 04:11:59;;;;;;;43.45;12.05;;;6.60;99.90;;;;;;4978891;28;20138;-64
2021/01/28 04:14:25;;;;;;;40.67;11.95;;;6.60;99.90;;;;;;4978987;28;20039;-63
2021/01/28 04:16:51;;;;;;;53.45;11.95;;;6.60;99.90;;;;;;4979897;28;20282;-63
2021/01/28 04:19:16;;;;;;;40.25;12.13;;;6.60;99.90;;;;;;4977438;28;20043;-63
2021/01/28 04:21:42;;;;;;;45.78;11.98;;;6.60;99.90;;;;;;4981558;28;20038;-64
2021/01/28 04:24:08;;;;;;;44.10;12.25;;;6.60;99.90;;;;;;4978173;28;20030;-64
2021/01/28 04:26:34;;;;;;;29.15;9.93;;;6.60;99.90;;;;;;4980035;28;20043;-63
2021/01/28 04:29:01;;;;;;;41.58;12.43;;;6.60;99.90;;;;;;4979248;28;20046;-63
2021/01/28 04:31:27;;;;;;;48.05;11.63;;;6.60;99.90;;;;;;4978239;28;20035;-63
2021/01/28 04:33:53;;;;;;;46.03;12.23;;;6.60;99.90;;;;;;4978529;28;20129;-64
2021/01/28 04:36:18;;;;;;;37.72;10.57;;;6.60;99.90;;;;;;4978041;28;20122;-65
2021/01/28 04:38:44;;;;;;;44.55;12.05;;;6.60;99.90;;;;;;4980621;28;20084;-63
2021/01/28 04:41:21;;;;;;;45.33;11.50;;;6.60;99.90;;;;;;4978028;28;20407;-63
2021/01/28 04:43:49;;;;;;;45.45;11.50;;;6.60;99.90;;;;;;4978411;28;20047;-63
2021/01/28 04:46:34;;;;;;;55.60;12.68;;;6.60;99.90;;;;;;4979293;28;20050;-63
2021/01/28 04:49:03;;;;;;;43.00;11.10;;;6.60;99.90;;;;;;4980395;28;20062;-63
2021/01/28 04:51:30;;;;;;;34.92;9.95;;;6.50;99.90;;;;;;4979300;28;20114;-62
2021/01/28 04:54:22;;;;;;;59.78;12.43;;;6.60;99.90;;;;;;4979601;28;20035;-63
2021/01/28 04:56:52;;;;;;;48.97;11.82;;;6.50;99.90;;;;;;4977903;28;20035;-63
2021/01/28 04:59:27;;;;;;;41.28;11.60;;;6.50;99.90;;;;;;4980844;28;20570;-63
2021/01/28 05:01:53;;;;;;;39.58;11.60;;;6.40;99.90;;;;;;4979012;28;20491;-63
2021/01/28 05:04:20;;;;;;;46.05;11.57;;;6.50;99.90;;;;;;4980486;28;20041;-62
2021/01/28 05:06:50;;;;;;;41.85;10.48;;;6.50;99.90;;;;;;4977947;28;20047;-64
2021/01/28 05:09:17;;;;;;;49.22;12.75;;;6.50;99.90;;;;;;4982416;28;20031;-63
2021/01/28 05:11:57;;;;;;;57.08;11.88;;;6.60;99.90;;;;;;4984484;28;20472;-63
2021/01/28 05:14:31;;;;;;;43.33;10.57;;;6.60;99.90;;;;;;4981987;28;20042;-63
2021/01/28 05:16:59;;;;;;;46.75;12.43;;;6.60;99.90;;;;;;4982354;28;20038;-64
2021/01/28 05:19:32;;;;;;;50.72;12.50;;;6.50;99.90;;;;;;4983253;28;20042;-64
2021/01/28 05:22:37;;;;;;;70.25;12.32;;;6.50;99.90;;;;;;4983014;28;20054;-63
2021/01/28 05:25:27;;;;;;;44.50;12.20;;;6.50;99.90;;;;;;4982945;28;20061;-63
2021/01/28 05:27:53;;;;;;;91.72;12.73;;;6.50;99.90;;;;;;4984743;28;20080;-63
2021/01/28 05:30:39;;;;;;;41.20;11.10;;;6.50;99.90;;;;;;4980744;28;20475;-63
2021/01/28 05:33:30;;;;;;;39.95;11.90;;;6.50;99.90;;;;;;4980224;28;20452;-63
2021/01/28 05:36:10;;;;;;;42.90;12.52;;;6.60;99.90;;;;;;4976313;28;20117;-63
2021/01/28 05:38:39;;;;;;;45.38;12.82;;;6.50;99.90;;;;;;4982203;28;20038;-63
2021/01/28 05:41:05;;;;;;;50.05;12.43;;;6.50;99.90;;;;;;4979089;28;20035;-64
2021/01/28 05:43:43;;;;;;;44.80;12.45;;;6.50;99.90;;;;;;4983344;28;20403;-63
2021/01/28 05:46:10;;;;;;;43.92;12.80;;;6.50;99.90;;;;;;4981433;28;20392;-63
2021/01/28 05:48:36;;;;;;;39.08;11.65;;;6.50;99.90;;;;;;4979438;28;20038;-63
2021/01/28 05:51:10;;;;;;;38.97;10.88;;;6.50;99.90;;;;;;4986849;28;20446;-63
2021/01/28 05:53:35;;;;;;;43.83;11.23;;;6.50;99.90;;;;;;4987521;28;20030;-63
2021/01/28 05:56:06;;;;;;;41.05;11.45;;;6.50;99.90;;;;;;4988009;28;20049;-63
2021/01/28 05:58:53;;;;;;;49.75;12.18;;;6.50;99.90;;;;;;4983913;28;20074;-63
2021/01/28 06:01:46;;;;;;;42.40;11.98;;;6.50;99.90;;;;;;4985550;28;20057;-63
2021/01/28 06:04:42;;;;;;;40.10;11.60;;;6.50;99.90;;;;;;4984544;28;20022;-62
2021/01/28 06:07:32;;;;;;;39.15;11.15;;;6.50;99.90;;;;;;4990727;28;20384;-63
2021/01/28 06:10:04;;;;;;;44.10;11.27;;;6.50;99.90;;;;;;4983730;28;20038;-63
2021/01/28 06:12:59;;;;;;;35.20;10.85;;;6.50;99.90;;;;;;4981698;28;20070;-63
2021/01/28 06:15:29;;;;;;;32.17;9.77;;;6.50;99.90;;;;;;4985483;28;20515;-62
2021/01/28 06:18:51;;;;;;;39.43;12.13;;;6.50;99.90;;;;;;4983533;28;20039;-62
2021/01/28 06:21:34;;;;;;;36.05;9.85;;;6.50;99.90;;;;;;4983428;28;20027;-63
2021/01/28 06:24:19;;;;;;;41.53;11.80;;;6.50;99.90;;;;;;4985177;28;20037;-63
2021/01/28 06:27:06;;;;;;;28.67;9.45;;;6.50;99.90;;;;;;5000288;28;20053;-65
2021/01/28 06:29:40;;;;;;;28.55;9.40;;;6.50;99.90;;;;;;4982329;28;20121;-63
2021/01/28 06:32:19;;;;;;;29.27;8.10;;;6.50;99.90;;;;;;4985574;28;20060;-62
2021/01/28 06:35:02;;;;;;;33.78;9.85;;;6.40;99.90;;;;;;4984933;28;20054;-62
2021/01/28 06:38:05;;;;;;;31.13;8.43;;;6.50;99.90;;;;;;4982315;28;20039;-62
2021/01/28 06:40:32;;;;;;;28.15;9.20;;;6.50;99.90;;;;;;4981911;28;20123;-63
2021/01/28 06:43:04;;;;;;;25.73;8.00;;;6.50;99.90;;;;;;4983749;28;20031;-62
2021/01/28 06:45:37;;;;;;;31.40;8.27;;;6.50;99.90;;;;;;4980404;28;20046;-63
2021/01/28 06:48:14;;;;;;;26.98;7.85;;;6.50;99.90;;;;;;4983555;28;20084;-62
2021/01/28 06:50:59;;;;;;;30.67;9.23;;;6.50;99.90;;;;;;4987075;28;20038;-62
2021/01/28 06:53:28;;;;;;;43.95;7.53;;;6.50;99.90;;;;;;4978834;28;20037;-63
2021/01/28 06:56:07;;;;;;;27.42;8.45;;;6.50;99.90;;;;;;4984494;28;20046;-62
2021/01/28 06:59:16;;;;;;;19.95;6.63;;;6.50;99.90;;;;;;4980756;28;20050;-62
2021/01/28 07:01:54;;;;;;;21.95;7.18;;;6.50;99.90;;;;;;4983247;28;20023;-62
2021/01/28 07:04:27;;;;;;;25.23;7.47;;;6.50;99.90;;;;;;4984529;28;20068;-62
2021/01/28 07:07:14;;;;;;;20.65;7.13;;;6.50;99.90;;;;;;4982378;28;20070;-62
2021/01/28 07:10:00;;;;;;;18.58;6.75;;;6.50;99.90;;;;;;4984075;28;20030;-61
2021/01/28 07:12:38;;;;;;;22.63;6.30;;;6.50;99.90;;;;;;4980709;28;20039;-62
2021/01/28 07:15:05;;;;;;;21.38;5.63;;;6.50;99.90;;;;;;4983565;28;20076;-61
2021/01/28 07:17:37;;;;;;;17.90;4.97;;;6.50;99.90;;;;;;4983456;28;20043;-62
2021/01/28 07:20:13;;;;;;;16.38;5.93;;;6.50;99.90;;;;;;4982300;28;20038;-61
2021/01/28 07:22:41;;;;;;;15.52;4.70;;;6.50;99.90;;;;;;4980993;28;20031;-62
2021/01/28 07:25:28;;;;;;;15.98;4.53;;;6.50;99.90;;;;;;4981909;28;20038;-61
2021/01/28 07:28:00;;;;;;;10.00;4.25;;;6.50;99.90;;;;;;4981880;28;20041;-62
2021/01/28 07:30:42;;;;;;;19.10;4.75;;;6.50;99.90;;;;;;4979545;28;20030;-61
2021/01/28 07:33:25;;;;;;;17.35;5.05;;;6.40;99.90;;;;;;4982365;28;20077;-62
2021/01/28 07:35:56;;;;;;;15.48;4.82;;;6.40;99.90;;;;;;4981090;28;20050;-62
2021/01/28 07:38:27;;;;;;;14.38;4.07;;;6.40;99.90;;;;;;4979697;28;20042;-62
2021/01/28 07:40:56;;;;;;;11.80;4.72;;;6.50;99.90;;;;;;4983585;28;20061;-62
2021/01/28 07:43:31;;;;;;;11.23;3.50;;;6.40;99.90;;;;;;4979758;28;20054;-62
2021/01/28 07:46:27;;;;;;;11.15;3.63;;;6.40;99.90;;;;;;4982006;28;20497;-62
2021/01/28 07:49:18;;;;;;;8.40;3.35;;;6.40;99.90;;;;;;4981131;28;20042;-62
2021/01/28 07:52:12;;;;;;;11.02;3.22;;;6.40;99.90;;;;;;4984278;28;20043;-62
2021/01/28 07:54:48;;;;;;;9.25;3.75;;;6.40;99.90;;;;;;4978857;28;20038;-62
2021/01/28 07:57:41;;;;;;;7.75;2.47;;;6.40;99.90;;;;;;4977468;28;20057;-62
2021/01/28 08:00:18;;;;;;;6.15;2.55;;;6.40;99.90;;;;;;4980304;28;20039;-62
2021/01/28 08:02:58;;;;;;;6.05;2.42;;;6.30;99.90;;;;;;4981594;28;20125;-61
2021/01/28 08:05:24;;;;;;;10.15;3.42;;;6.30;99.90;;;;;;4978117;28;20117;-62
2021/01/28 08:08:08;;;;;;;12.13;2.50;;;6.30;99.90;;;;;;4980803;28;20412;-62
2021/01/28 08:10:40;;;;;;;8.95;2.42;;;6.30;99.90;;;;;;4978870;28;20079;-61
2021/01/28 08:13:11;;;;;;;6.63;2.58;;;6.30;99.90;;;;;;4980982;28;20022;-61
2021/01/28 08:15:49;;;;;;;8.13;2.45;;;6.30;99.90;;;;;;4977725;28;20035;-62
2021/01/28 08:18:20;;;;;;;7.18;2.90;;;6.30;99.90;;;;;;4976476;28;20038;-63
2021/01/28 08:20:47;;;;;;;4.65;1.95;;;6.20;99.90;;;;;;4980218;28;20043;-61
2021/01/28 08:23:25;;;;;;;8.45;2.67;;;6.20;99.90;;;;;;4979528;28;20105;-64
2021/01/28 08:25:51;;;;;;;8.63;2.63;;;6.30;99.90;;;;;;4980894;28;20837;-62
2021/01/28 08:28:17;;;;;;;6.22;2.47;;;6.20;99.90;;;;;;4985422;28;20118;-62
2021/01/28 08:30:43;;;;;;;5.88;1.80;;;6.20;99.90;;;;;;4990696;28;20041;-62
2021/01/28 08:33:25;;;;;;;5.22;1.83;;;6.20;99.90;;;;;;4991067;28;20113;-62
2021/01/28 08:35:58;;;;;;;4.22;2.10;;;6.20;99.90;;;;;;4985651;28;20062;-62
2021/01/28 08:38:33;;;;;;;7.30;2.20;;;6.20;99.90;;;;;;4985195;28;20026;-61
2021/01/28 08:41:01;;;;;;;3.83;1.77;;;6.20;99.90;;;;;;4991488;28;20041;-61
2021/01/28 08:43:27;;;;;;;5.78;2.00;;;6.10;99.90;;;;;;4988775;28;20034;-61
2021/01/28 08:46:09;;;;;;;6.53;2.25;;;6.20;99.90;;;;;;4985572;28;20027;-61
2021/01/28 08:48:36;;;;;;;5.43;2.00;;;6.10;99.90;;;;;;4986963;28;20030;-62
2021/01/28 08:51:08;;;;;;;5.32;2.50;;;6.20;99.90;;;;;;4991591;28;20045;-61
2021/01/28 08:53:34;;;;;;;6.43;1.98;;;6.20;99.90;;;;;;4987996;28;20121;-62
2021/01/28 08:56:08;;;;;;;4.10;2.00;;;6.20;99.90;;;;;;4985590;28;20123;-62
2021/01/28 08:58:40;;;;;;;5.43;2.20;;;6.10;99.90;;;;;;4987141;28;20034;-62
2021/01/28 09:01:07;;;;;;;4.82;2.47;;;6.10;99.90;;;;;;4988974;28;20030;-66
2021/01/28 09:03:45;;;;;;;4.68;2.15;;;6.10;99.90;;;;;;4988161;28;20510;-62
2021/01/28 09:06:10;;;;;;;7.35;2.42;;;6.10;99.90;;;;;;4986560;28;20122;-61
2021/01/28 09:08:39;;;;;;;8.43;2.33;;;6.10;99.90;;;;;;4988839;28;20181;-62
2021/01/28 09:11:08;;;;;;;8.45;2.50;;;6.10;99.90;;;;;;4988890;28;20045;-61
2021/01/28 09:13:33;;;;;;;4.18;1.48;;;6.10;99.90;;;;;;4983245;28;20118;-62
2021/01/28 09:16:15;;;;;;;5.53;2.40;;;6.10;99.90;;;;;;4982498;28;20186;-61
2021/01/28 09:18:44;;;;;;;7.60;2.20;;;6.10;99.90;;;;;;4988208;28;20042;-61
2021/01/28 09:21:15;;;;;;;3.67;1.95;;;6.10;99.90;;;;;;4988678;28;20038;-62
2021/01/28 09:24:15;;;;;;;4.75;2.20;;;6.10;99.90;;;;;;4985424;28;20038;-61
2021/01/28 09:26:41;;;;;;;5.70;2.50;;;6.00;99.90;;;;;;4987144;28;20027;-61
2021/01/28 09:29:17;;;;;;;5.25;2.33;;;6.00;99.90;;;;;;4988421;28;20413;-61
2021/01/28 09:31:43;;;;;;;4.40;2.00;;;6.00;99.90;;;;;;4984221;28;20038;-61
2021/01/28 09:34:15;;;;;;;3.42;2.15;;;6.00;99.90;;;;;;4985214;28;20037;-62
2021/01/28 09:36:42;;;;;;;4.85;2.28;;;6.10;99.90;;;;;;5001822;28;20030;-61
2021/01/28 09:39:28;;;;;;;5.28;2.88;;;6.00;99.90;;;;;;4988252;28;20041;-61
2021/01/28 09:41:54;;;;;;;6.45;2.00;;;6.00;99.90;;;;;;4983466;28;20043;-62
2021/01/28 09:44:37;;;;;;;4.93;2.38;;;6.00;99.90;;;;;;4987323;28;20538;-62
2021/01/28 09:47:25;;;;;;;6.30;2.05;;;6.00;99.90;;;;;;4989384;28;20068;-62
2021/01/28 09:49:55;;;;;;;5.30;1.90;;;5.90;99.90;;;;;;4983528;28;20053;-62
2021/01/28 09:52:36;;;;;;;5.15;1.70;;;6.00;99.90;;;;;;4983413;28;20030;-62
2021/01/28 09:55:05;;;;;;;5.45;1.88;;;6.00;99.90;;;;;;4986560;28;20037;-61
2021/01/28 09:57:31;;;;;;;3.42;1.67;;;6.00;99.90;;;;;;4989211;28;20125;-61
2021/01/28 09:59:57;;;;;;;3.95;1.98;;;6.00;99.90;;;;;;4986630;28;20471;-61
2021/01/28 10:02:37;;;;;;;5.90;2.15;;;5.90;99.90;;;;;;4989136;28;20034;-62
2021/01/28 10:05:05;;;;;;;3.38;1.40;;;6.00;99.90;;;;;;4988876;28;20042;-62
2021/01/28 10:07:31;;;;;;;5.00;2.33;;;6.00;99.90;;;;;;4989077;28;20047;-61
2021/01/28 10:09:56;;;;;;;2.30;1.38;;;6.00;99.90;;;;;;4987173;28;20034;-61
2021/01/28 10:12:25;;;;;;;3.95;1.70;;;5.90;99.90;;;;;;4990018;28;20053;-62
2021/01/28 10:14:51;;;;;;;4.10;1.65;;;6.00;99.90;;;;;;4992186;28;20048;-62
2021/01/28 10:17:16;;;;;;;3.38;1.75;;;6.00;99.90;;;;;;4990026;28;20114;-62
2021/01/28 10:19:43;;;;;;;3.90;1.70;;;6.00;99.90;;;;;;4987300;28;20066;-62
2021/01/28 10:22:11;;;;;;;4.38;1.42;;;6.00;99.90;;;;;;4989750;28;20121;-62
2021/01/28 10:24:37;;;;;;;3.40;1.50;;;5.90;99.90;;;;;;4990111;28;20042;-62
2021/01/28 10:27:02;;;;;;;6.50;1.48;;;6.00;99.90;;;;;;4991046;28;20042;-62
2021/01/28 10:29:28;;;;;;;2.28;1.10;;;6.00;99.90;;;;;;4984248;28;20086;-61
2021/01/28 10:31:54;;;;;;;2.58;1.30;;;6.00;99.90;;;;;;4986309;28;20043;-62
2021/01/28 10:34:20;;;;;;;2.22;1.25;;;6.00;99.90;;;;;;4984874;28;20034;-61
2021/01/28 10:36:45;;;;;;;2.15;1.15;;;5.90;99.90;;;;;;4987486;28;20130;-62
2021/01/28 10:39:11;;;;;;;3.00;1.50;;;5.90;99.90;;;;;;4985336;28;20064;-62
2021/01/28 10:41:36;;;;;;;3.42;1.70;;;6.00;99.90;;;;;;4986172;28;20087;-63
2021/01/28 10:44:02;;;;;;;4.20;1.13;;;6.00;99.90;;;;;;4982595;28;20116;-63
2021/01/28 10:46:27;;;;;;;3.63;1.50;;;5.90;99.90;;;;;;4983466;28;20400;-62
2021/01/28 10:48:53;;;;;;;2.17;0.95;;;6.00;99.90;;;;;;4987051;28;20080;-62
2021/01/28 10:51:18;;;;;;;1.88;0.80;;;6.00;99.90;;;;;;4985030;28;20067;-62
2021/01/28 10:53:44;;;;;;;6.68;1.42;;;6.00;99.90;;;;;;4986060;28;20065;-62
2021/01/28 10:56:10;;;;;;;1.60;1.05;;;6.10;99.90;;;;;;4982388;28;20034;-62
2021/01/28 10:58:36;;;;;;;1.60;0.80;;;6.00;99.90;;;;;;4984730;28;20034;-62
2021/01/28 11:01:02;;;;;;;2.97;1.05;;;6.00;99.90;;;;;;4984805;28;20091;-62
2021/01/28 11:03:27;;;;;;;2.90;1.65;;;6.00;99.90;;;;;;4985243;28;20506;-62
2021/01/28 11:05:53;;;;;;;2.83;1.30;;;6.10;99.90;;;;;;4983921;28;20027;-61
2021/01/28 11:08:19;;;;;;;2.28;0.82;;;6.10;99.90;;;;;;4984383;28;20037;-62
2021/01/28 11:10:44;;;;;;;3.03;1.17;;;6.00;99.90;;;;;;4986225;28;20452;-61
2021/01/28 11:13:10;;;;;;;2.53;1.00;;;6.10;99.90;;;;;;4982417;28;20181;-61
2021/01/28 11:15:37;;;;;;;3.20;1.10;;;6.10;99.90;;;;;;4984864;28;20381;-62
2021/01/28 11:18:05;;;;;;;1.50;1.00;;;6.10;99.90;;;;;;4984609;28;20046;-62
2021/01/28 11:20:31;;;;;;;1.85;1.00;;;6.10;99.90;;;;;;4980050;28;20476;-61
2021/01/28 11:22:58;;;;;;;3.15;1.23;;;6.10;99.90;;;;;;4980772;28;20031;-62
2021/01/28 11:25:25;;;;;;;1.75;0.90;;;6.10;99.90;;;;;;4985478;28;20038;-62
2021/01/28 11:27:51;;;;;;;3.28;1.27;;;6.20;99.90;;;;;;4984164;28;20046;-62
2021/01/28 11:30:19;;;;;;;2.13;1.00;;;6.20;99.90;;;;;;4986446;28;20030;-61
2021/01/28 11:32:45;;;;;;;2.13;0.98;;;6.10;99.90;;;;;;4984133;28;20039;-62
2021/01/28 11:35:13;;;;;;;1.58;1.00;;;6.10;99.90;;;;;;4982032;28;20109;-62
2021/01/28 11:37:38;;;;;;;1.58;0.90;;;6.10;99.90;;;;;;4987752;28;20027;-62
2021/01/28 11:40:06;;;;;;;4.40;1.33;;;6.10;99.90;;;;;;4983118;28;20053;-62
2021/01/28 11:42:31;;;;;;;2.25;1.20;;;6.10;99.90;;;;;;4982570;28;20031;-62
2021/01/28 11:44:57;;;;;;;3.33;1.77;;;6.10;99.90;;;;;;4990807;28;20051;-62
2021/01/28 11:47:24;;;;;;;3.33;1.58;;;6.10;99.90;;;;;;4986927;28;20026;-62
2021/01/28 11:49:51;;;;;;;3.90;1.70;;;6.10;99.90;;;;;;4986571;28;20037;-62
2021/01/28 11:52:16;;;;;;;2.65;1.50;;;6.10;99.90;;;;;;4983507;28;20034;-62
2021/01/28 11:54:42;;;;;;;2.67;1.67;;;6.10;99.90;;;;;;4985729;28;20057;-61
2021/01/28 11:57:07;;;;;;;2.67;1.52;;;6.20;99.90;;;;;;4988000;28;20046;-62
2021/01/28 11:59:33;;;;;;;3.72;2.40;;;6.20;99.90;;;;;;4982874;28;20042;-61
2021/01/28 12:01:58;;;;;;;3.53;1.58;;;6.20;99.90;;;;;;4984407;28;20035;-62
2021/01/28 12:04:24;;;;;;;4.43;1.80;;;6.20;99.90;;;;;;4984886;28;20351;-61
2021/01/28 12:06:49;;;;;;;3.65;1.95;;;6.20;99.90;;;;;;4985988;28;20049;-63
2021/01/28 12:09:15;;;;;;;3.95;2.38;;;6.20;99.90;;;;;;4985214;28;20121;-62
2021/01/28 12:11:41;;;;;;;6.78;2.60;;;6.20;99.90;;;;;;4982514;28;20035;-61
2021/01/28 12:14:06;;;;;;;5.18;2.80;;;6.20;99.90;;;;;;4984547;28;20049;-61
2021/01/28 12:16:32;;;;;;;5.40;2.78;;;6.20;99.90;;;;;;4982205;28;20037;-62
2021/01/28 12:18:58;;;;;;;6.40;3.17;;;6.30;99.90;;;;;;4986533;28;20042;-61
2021/01/28 12:21:23;;;;;;;4.75;2.80;;;6.30;99.90;;;;;;4983570;28;20507;-61
2021/01/28 12:23:50;;;;;;;6.30;2.92;;;6.30;99.90;;;;;;4997123;28;20492;-61
2021/01/28 12:26:16;;;;;;;6.10;2.80;;;6.20;99.90;;;;;;4984824;28;20064;-62
2021/01/28 12:28:41;;;;;;;6.00;3.17;;;6.20;99.90;;;;;;4985667;28;20438;-61
2021/01/28 12:31:07;;;;;;;8.23;4.22;;;6.20;99.90;;;;;;4985751;28;20064;-61
2021/01/28 12:33:33;;;;;;;8.98;3.95;;;6.20;99.90;;;;;;4984876;28;20354;-62
2021/01/28 12:35:59;;;;;;;7.03;3.53;;;6.30;99.90;;;;;;4983413;28;20385;-62
2021/01/28 12:38:24;;;;;;;6.95;3.60;;;6.30;99.90;;;;;;4982751;28;20038;-62
2021/01/28 12:40:50;;;;;;;6.82;3.25;;;6.30;99.90;;;;;;4986223;28;20034;-61
2021/01/28 12:43:16;;;;;;;7.18;3.40;;;6.30;99.90;;;;;;4979442;28;20058;-63
2021/01/28 12:45:42;;;;;;;6.18;3.67;;;6.40;99.90;;;;;;4981632;28;20053;-62
2021/01/28 12:48:08;;;;;;;6.13;3.58;;;6.40;99.90;;;;;;4983213;28;20058;-62
2021/01/28 12:50:34;;;;;;;5.18;2.90;;;6.40;99.90;;;;;;4983201;28;20117;-61
2021/01/28 12:52:59;;;;;;;6.60;3.70;;;6.40;99.90;;;;;;4985452;28;20460;-62
2021/01/28 12:55:25;;;;;;;6.40;3.10;;;6.40;99.90;;;;;;4982975;28;20458;-61
2021/01/28 12:57:51;;;;;;;8.10;3.45;;;6.30;99.90;;;;;;4982673;28;20042;-62
2021/01/28 13:00:18;;;;;;;6.63;3.30;;;6.30;99.90;;;;;;4984079;28;20045;-62
2021/01/28 13:02:44;;;;;;;5.13;3.17;;;6.30;99.90;;;;;;4984176;28;20047;-61
2021/01/28 13:05:10;;;;;;;6.25;3.17;;;6.30;99.90;;;;;;4999423;28;20030;-61
2021/01/28 13:07:36;;;;;;;9.75;3.70;;;6.20;99.90;;;;;;4981180;28;20041;-61